sensor_id;sensor_type;location;lat;lon;timestamp;temperature;humidity
5138;DHT22;53959;53.626;11.410;2022-12-17T00:02:17;-5.10;99.90
5138;DHT22;53959;53.626;11.410;2022-12-17T00:05:01;-5.10;99.90
5138;DHT22;53959;53.626;11.410;2022-12-17T00:07:45;-4.90;99.90
5138;DHT22;53959;53.626;11.410;2022-12-17T00:10:29;-5.20;99.90
5138;DHT22;53959;53.626;11.410;2022-12-17T00:13:18;-5.20;99.90
5138;DHT22;53959;53.626;11.410;2022-12-17T00:16:03;-5.40;99.90
5138;DHT22;53959;53.626;11.410;2022-12-17T00:18:47;-5.80;99.90
5138;DHT22;53959;53.626;11.410;2022-12-17T00:21:31;-5.80;99.90
5138;DHT22;53959;53.626;11.410;2022-12-17T00:24:15;-5.80;99.90
5138;DHT22;53959;53.626;11.410;2022-12-17T00:26:59;-5.70;99.90
5138;DHT22;53959;53.626;11.410;2022-12-17T00:29:43;-5.60;99.90
5138;DHT22;53959;53.626;11.410;2022-12-17T00:32:27;-5.40;99.90
5138;DHT22;53959;53.626;11.410;2022-12-17T00:35:11;-5.90;99.90
5138;DHT22;53959;53.626;11.410;2022-12-17T00:37:55;-5.80;99.90
5138;DHT22;53959;53.626;11.410;2022-12-17T00:40:59;-5.80;99.90
5138;DHT22;53959;53.626;11.410;2022-12-17T00:43:43;-5.70;99.90
5138;DHT22;53959;53.626;11.410;2022-12-17T00:46:27;-5.70;99.90
5138;DHT22;53959;53.626;11.410;2022-12-17T00:49:31;-5.80;99.90
5138;DHT22;53959;53.626;11.410;2022-12-17T00:52:15;-5.70;99.90
5138;DHT22;53959;53.626;11.410;2022-12-17T00:54:59;-5.80;99.90
5138;DHT22;53959;53.626;11.410;2022-12-17T00:57:44;-5.80;99.90
5138;DHT22;53959;53.626;11.410;2022-12-17T01:00:28;-5.90;99.90
5138;DHT22;53959;53.626;11.410;2022-12-17T01:03:13;-5.70;99.90
5138;DHT22;53959;53.626;11.410;2022-12-17T01:06:02;-5.50;99.90
5138;DHT22;53959;53.626;11.410;2022-12-17T01:08:46;-5.50;99.90
5138;DHT22;53959;53.626;11.410;2022-12-17T01:11:30;-5.70;99.90
5138;DHT22;53959;53.626;11.410;2022-12-17T01:14:14;-5.70;99.90
5138;DHT22;53959;53.626;11.410;2022-12-17T01:16:58;-5.60;99.90
5138;DHT22;53959;53.626;11.410;2022-12-17T01:19:42;-5.40;99.90
5138;DHT22;53959;53.626;11.410;2022-12-17T01:22:26;-5.60;99.90
5138;DHT22;53959;53.626;11.410;2022-12-17T01:25:11;-5.70;99.90
5138;DHT22;53959;53.626;11.410;2022-12-17T01:27:55;-5.60;99.90
5138;DHT22;53959;53.626;11.410;2022-12-17T01:30:39;-5.40;99.90
5138;DHT22;53959;53.626;11.410;2022-12-17T01:33:23;-5.20;99.90
5138;DHT22;53959;53.626;11.410;2022-12-17T01:36:08;-5.00;99.90
5138;DHT22;53959;53.626;11.410;2022-12-17T01:38:52;-4.70;99.90
5138;DHT22;53959;53.626;11.410;2022-12-17T01:41:36;-4.60;99.90
5138;DHT22;53959;53.626;11.410;2022-12-17T01:44:45;-4.60;99.90
5138;DHT22;53959;53.626;11.410;2022-12-17T01:47:51;-4.90;99.90
5138;DHT22;53959;53.626;11.410;2022-12-17T01:50:50;-5.00;99.90
5138;DHT22;53959;53.626;11.410;2022-12-17T01:53:39;-4.90;99.90
5138;DHT22;53959;53.626;11.410;2022-12-17T01:56:24;-5.00;99.90
5138;DHT22;53959;53.626;11.410;2022-12-17T01:59:09;-5.20;99.90
5138;DHT22;53959;53.626;11.410;2022-12-17T02:01:54;-5.40;99.90
5138;DHT22;53959;53.626;11.410;2022-12-17T02:04:38;-5.30;99.90
5138;DHT22;53959;53.626;11.410;2022-12-17T02:10:44;-5.70;99.90
5138;DHT22;53959;53.626;11.410;2022-12-17T02:13:36;-5.60;99.90
5138;DHT22;53959;53.626;11.410;2022-12-17T02:16:30;-5.90;99.90
5138;DHT22;53959;53.626;11.410;2022-12-17T02:19:36;-6.00;99.90
5138;DHT22;53959;53.626;11.410;2022-12-17T02:22:49;-6.10;99.90
5138;DHT22;53959;53.626;11.410;2022-12-17T02:26:00;-6.30;99.90
5138;DHT22;53959;53.626;11.410;2022-12-17T02:28:48;-6.10;99.90
5138;DHT22;53959;53.626;11.410;2022-12-17T02:31:35;-6.10;99.90
5138;DHT22;53959;53.626;11.410;2022-12-17T02:34:20;-5.80;99.90
5138;DHT22;53959;53.626;11.410;2022-12-17T02:37:04;-6.10;99.90
5138;DHT22;53959;53.626;11.410;2022-12-17T02:39:48;-6.30;99.90
5138;DHT22;53959;53.626;11.410;2022-12-17T02:42:32;-6.30;99.90
5138;DHT22;53959;53.626;11.410;2022-12-17T02:45:18;-6.10;99.90
5138;DHT22;53959;53.626;11.410;2022-12-17T02:48:03;-5.80;99.90
5138;DHT22;53959;53.626;11.410;2022-12-17T02:50:49;-5.80;99.90
5138;DHT22;53959;53.626;11.410;2022-12-17T02:53:34;-5.90;99.90
5138;DHT22;53959;53.626;11.410;2022-12-17T02:56:24;-6.00;99.90
5138;DHT22;53959;53.626;11.410;2022-12-17T02:59:08;-5.60;99.90
5138;DHT22;53959;53.626;11.410;2022-12-17T03:01:52;-5.40;99.90
5138;DHT22;53959;53.626;11.410;2022-12-17T03:04:36;-5.60;99.90
5138;DHT22;53959;53.626;11.410;2022-12-17T03:07:37;-5.70;99.90
5138;DHT22;53959;53.626;11.410;2022-12-17T03:10:20;-6.30;99.90
5138;DHT22;53959;53.626;11.410;2022-12-17T03:13:05;-6.40;99.90
5138;DHT22;53959;53.626;11.410;2022-12-17T03:15:49;-6.60;99.90
5138;DHT22;53959;53.626;11.410;2022-12-17T03:18:33;-6.40;99.90
5138;DHT22;53959;53.626;11.410;2022-12-17T03:21:17;-6.40;99.90
5138;DHT22;53959;53.626;11.410;2022-12-17T03:24:01;-6.30;99.90
5138;DHT22;53959;53.626;11.410;2022-12-17T03:26:45;-6.40;99.90
5138;DHT22;53959;53.626;11.410;2022-12-17T03:29:29;-6.50;99.90
5138;DHT22;53959;53.626;11.410;2022-12-17T03:32:13;-6.50;99.90
5138;DHT22;53959;53.626;11.410;2022-12-17T03:34:57;-6.60;99.90
5138;DHT22;53959;53.626;11.410;2022-12-17T03:37:41;-6.70;99.90
5138;DHT22;53959;53.626;11.410;2022-12-17T03:40:25;-6.80;99.90
5138;DHT22;53959;53.626;11.410;2022-12-17T03:43:29;-6.80;99.90
5138;DHT22;53959;53.626;11.410;2022-12-17T03:46:13;-6.80;99.90
5138;DHT22;53959;53.626;11.410;2022-12-17T03:48:57;-6.60;99.90
5138;DHT22;53959;53.626;11.410;2022-12-17T03:51:41;-6.70;99.90
5138;DHT22;53959;53.626;11.410;2022-12-17T03:54:26;-6.70;99.90
5138;DHT22;53959;53.626;11.410;2022-12-17T03:57:10;-6.50;99.90
5138;DHT22;53959;53.626;11.410;2022-12-17T03:59:54;-6.50;99.90
5138;DHT22;53959;53.626;11.410;2022-12-17T04:02:38;-6.50;99.90
5138;DHT22;53959;53.626;11.410;2022-12-17T04:05:22;-6.80;99.90
5138;DHT22;53959;53.626;11.410;2022-12-17T04:08:06;-6.80;99.90
5138;DHT22;53959;53.626;11.410;2022-12-17T04:10:50;-6.80;99.90
5138;DHT22;53959;53.626;11.410;2022-12-17T04:13:34;-6.90;99.90
5138;DHT22;53959;53.626;11.410;2022-12-17T04:16:18;-6.90;99.90
5138;DHT22;53959;53.626;11.410;2022-12-17T04:19:02;-6.90;99.90
5138;DHT22;53959;53.626;11.410;2022-12-17T04:21:46;-6.90;99.90
5138;DHT22;53959;53.626;11.410;2022-12-17T04:24:30;-6.90;99.90
5138;DHT22;53959;53.626;11.410;2022-12-17T04:27:14;-7.10;99.90
5138;DHT22;53959;53.626;11.410;2022-12-17T04:29:58;-7.20;99.90
5138;DHT22;53959;53.626;11.410;2022-12-17T04:32:42;-7.30;99.90
5138;DHT22;53959;53.626;11.410;2022-12-17T04:35:26;-7.40;99.90
5138;DHT22;53959;53.626;11.410;2022-12-17T04:38:10;-7.50;99.90
5138;DHT22;53959;53.626;11.410;2022-12-17T04:40:55;-7.60;99.90
5138;DHT22;53959;53.626;11.410;2022-12-17T04:43:39;-7.50;99.90
5138;DHT22;53959;53.626;11.410;2022-12-17T04:46:23;-7.40;99.90
5138;DHT22;53959;53.626;11.410;2022-12-17T04:49:07;-7.20;99.90
5138;DHT22;53959;53.626;11.410;2022-12-17T04:51:51;-7.20;99.90
5138;DHT22;53959;53.626;11.410;2022-12-17T04:54:35;-7.10;99.90
5138;DHT22;53959;53.626;11.410;2022-12-17T04:57:19;-7.20;99.90
5138;DHT22;53959;53.626;11.410;2022-12-17T05:00:03;-7.00;99.90
5138;DHT22;53959;53.626;11.410;2022-12-17T05:02:48;-7.10;99.90
5138;DHT22;53959;53.626;11.410;2022-12-17T05:05:32;-7.00;99.90
5138;DHT22;53959;53.626;11.410;2022-12-17T05:08:16;-7.00;99.90
5138;DHT22;53959;53.626;11.410;2022-12-17T05:11:02;-7.10;99.90
5138;DHT22;53959;53.626;11.410;2022-12-17T05:13:46;-7.00;99.90
5138;DHT22;53959;53.626;11.410;2022-12-17T05:16:30;-6.80;99.90
5138;DHT22;53959;53.626;11.410;2022-12-17T05:19:14;-6.80;99.90
5138;DHT22;53959;53.626;11.410;2022-12-17T05:21:58;-6.80;99.90
5138;DHT22;53959;53.626;11.410;2022-12-17T05:24:42;-6.60;99.90
5138;DHT22;53959;53.626;11.410;2022-12-17T05:27:26;-6.40;99.90
5138;DHT22;53959;53.626;11.410;2022-12-17T05:30:10;-6.40;99.90
5138;DHT22;53959;53.626;11.410;2022-12-17T05:33:01;-6.40;99.90
5138;DHT22;53959;53.626;11.410;2022-12-17T05:35:46;-6.70;99.90
5138;DHT22;53959;53.626;11.410;2022-12-17T05:38:30;-6.70;99.90
5138;DHT22;53959;53.626;11.410;2022-12-17T05:41:14;-6.70;99.90
5138;DHT22;53959;53.626;11.410;2022-12-17T05:43:58;-6.80;99.90
5138;DHT22;53959;53.626;11.410;2022-12-17T05:46:53;-6.80;99.90
5138;DHT22;53959;53.626;11.410;2022-12-17T05:49:37;-6.80;99.90
5138;DHT22;53959;53.626;11.410;2022-12-17T05:52:21;-6.90;99.90
5138;DHT22;53959;53.626;11.410;2022-12-17T05:55:05;-7.10;99.90
5138;DHT22;53959;53.626;11.410;2022-12-17T05:57:49;-7.20;99.90
5138;DHT22;53959;53.626;11.410;2022-12-17T06:00:34;-7.10;99.90
5138;DHT22;53959;53.626;11.410;2022-12-17T06:03:18;-7.10;99.90
5138;DHT22;53959;53.626;11.410;2022-12-17T06:06:02;-7.00;99.90
5138;DHT22;53959;53.626;11.410;2022-12-17T06:08:46;-7.20;99.90
5138;DHT22;53959;53.626;11.410;2022-12-17T06:11:30;-7.10;99.90
5138;DHT22;53959;53.626;11.410;2022-12-17T06:14:14;-7.00;99.90
5138;DHT22;53959;53.626;11.410;2022-12-17T06:16:58;-7.00;99.90
5138;DHT22;53959;53.626;11.410;2022-12-17T06:19:59;-6.80;99.90
5138;DHT22;53959;53.626;11.410;2022-12-17T06:22:43;-7.00;99.90
5138;DHT22;53959;53.626;11.410;2022-12-17T06:25:27;-7.10;99.90
5138;DHT22;53959;53.626;11.410;2022-12-17T06:28:11;-7.10;99.90
5138;DHT22;53959;53.626;11.410;2022-12-17T06:30:55;-7.00;99.90
5138;DHT22;53959;53.626;11.410;2022-12-17T06:33:40;-7.10;99.90
5138;DHT22;53959;53.626;11.410;2022-12-17T06:36:24;-7.20;99.90
5138;DHT22;53959;53.626;11.410;2022-12-17T06:39:09;-7.00;99.90
5138;DHT22;53959;53.626;11.410;2022-12-17T06:41:53;-7.00;99.90
5138;DHT22;53959;53.626;11.410;2022-12-17T06:44:37;-7.00;99.90
5138;DHT22;53959;53.626;11.410;2022-12-17T06:47:21;-7.10;99.90
5138;DHT22;53959;53.626;11.410;2022-12-17T06:50:06;-6.90;99.90
5138;DHT22;53959;53.626;11.410;2022-12-17T06:53:17;-6.90;99.90
5138;DHT22;53959;53.626;11.410;2022-12-17T06:56:01;-6.80;99.90
5138;DHT22;53959;53.626;11.410;2022-12-17T06:58:45;-6.70;99.90
5138;DHT22;53959;53.626;11.410;2022-12-17T07:01:29;-6.70;99.90
5138;DHT22;53959;53.626;11.410;2022-12-17T07:04:13;-6.50;99.90
5138;DHT22;53959;53.626;11.410;2022-12-17T07:06:57;-6.50;99.90
5138;DHT22;53959;53.626;11.410;2022-12-17T07:09:41;-6.50;99.90
5138;DHT22;53959;53.626;11.410;2022-12-17T07:12:25;-6.50;99.90
5138;DHT22;53959;53.626;11.410;2022-12-17T07:15:10;-6.50;99.90
5138;DHT22;53959;53.626;11.410;2022-12-17T07:17:56;-6.50;99.90
5138;DHT22;53959;53.626;11.410;2022-12-17T07:20:40;-6.40;99.90
5138;DHT22;53959;53.626;11.410;2022-12-17T07:23:24;-6.30;99.90
5138;DHT22;53959;53.626;11.410;2022-12-17T07:26:08;-6.20;99.90
5138;DHT22;53959;53.626;11.410;2022-12-17T07:28:52;-6.20;99.90
5138;DHT22;53959;53.626;11.410;2022-12-17T07:31:36;-6.30;99.90
5138;DHT22;53959;53.626;11.410;2022-12-17T07:34:20;-6.20;99.90
5138;DHT22;53959;53.626;11.410;2022-12-17T07:37:04;-6.00;99.90
5138;DHT22;53959;53.626;11.410;2022-12-17T07:39:48;-6.10;99.90
5138;DHT22;53959;53.626;11.410;2022-12-17T07:42:32;-6.20;99.90
5138;DHT22;53959;53.626;11.410;2022-12-17T07:45:16;-6.30;99.90
5138;DHT22;53959;53.626;11.410;2022-12-17T07:48:00;-6.40;99.90
5138;DHT22;53959;53.626;11.410;2022-12-17T07:50:48;-6.20;99.90
5138;DHT22;53959;53.626;11.410;2022-12-17T07:53:32;-6.30;99.90
5138;DHT22;53959;53.626;11.410;2022-12-17T07:56:16;-6.10;99.90
5138;DHT22;53959;53.626;11.410;2022-12-17T07:59:00;-6.10;99.90
5138;DHT22;53959;53.626;11.410;2022-12-17T08:01:44;-6.10;99.90
5138;DHT22;53959;53.626;11.410;2022-12-17T08:04:28;-6.00;99.90
5138;DHT22;53959;53.626;11.410;2022-12-17T08:07:12;-5.80;99.90
5138;DHT22;53959;53.626;11.410;2022-12-17T08:09:56;-5.90;99.90
5138;DHT22;53959;53.626;11.410;2022-12-17T08:12:40;-5.80;99.90
5138;DHT22;53959;53.626;11.410;2022-12-17T08:15:24;-5.80;99.90
5138;DHT22;53959;53.626;11.410;2022-12-17T08:18:08;-5.70;99.90
5138;DHT22;53959;53.626;11.410;2022-12-17T08:20:53;-5.60;99.90
5138;DHT22;53959;53.626;11.410;2022-12-17T08:23:37;-5.50;99.90
5138;DHT22;53959;53.626;11.410;2022-12-17T08:26:21;-5.50;99.90
5138;DHT22;53959;53.626;11.410;2022-12-17T08:29:05;-5.50;99.90
5138;DHT22;53959;53.626;11.410;2022-12-17T08:31:49;-5.50;99.90
5138;DHT22;53959;53.626;11.410;2022-12-17T08:34:33;-5.50;99.90
5138;DHT22;53959;53.626;11.410;2022-12-17T08:37:17;-5.40;99.90
5138;DHT22;53959;53.626;11.410;2022-12-17T08:40:06;-5.40;99.90
5138;DHT22;53959;53.626;11.410;2022-12-17T08:42:56;-5.40;99.90
5138;DHT22;53959;53.626;11.410;2022-12-17T08:45:46;-5.30;99.90
5138;DHT22;53959;53.626;11.410;2022-12-17T09:00:35;-5.20;99.90
5138;DHT22;53959;53.626;11.410;2022-12-17T09:03:19;-5.20;99.90
5138;DHT22;53959;53.626;11.410;2022-12-17T09:06:03;-5.10;99.90
5138;DHT22;53959;53.626;11.410;2022-12-17T09:08:47;-5.00;99.90
5138;DHT22;53959;53.626;11.410;2022-12-17T09:11:31;-5.00;99.90
5138;DHT22;53959;53.626;11.410;2022-12-17T09:14:15;-5.00;99.90
5138;DHT22;53959;53.626;11.410;2022-12-17T09:16:59;-5.00;99.90
5138;DHT22;53959;53.626;11.410;2022-12-17T09:19:43;-5.00;99.90
5138;DHT22;53959;53.626;11.410;2022-12-17T09:22:27;-5.00;99.90
5138;DHT22;53959;53.626;11.410;2022-12-17T09:25:11;-5.00;99.90
5138;DHT22;53959;53.626;11.410;2022-12-17T09:27:59;-4.90;99.90
5138;DHT22;53959;53.626;11.410;2022-12-17T09:30:44;-4.90;99.90
5138;DHT22;53959;53.626;11.410;2022-12-17T09:33:28;-4.70;99.90
5138;DHT22;53959;53.626;11.410;2022-12-17T09:36:12;-4.70;99.90
5138;DHT22;53959;53.626;11.410;2022-12-17T09:38:56;-4.60;99.90
5138;DHT22;53959;53.626;11.410;2022-12-17T09:45:07;-4.50;99.90
5138;DHT22;53959;53.626;11.410;2022-12-17T09:51:01;-4.30;99.90
5138;DHT22;53959;53.626;11.410;2022-12-17T09:53:55;-4.30;99.90
5138;DHT22;53959;53.626;11.410;2022-12-17T09:56:41;-4.20;99.90
5138;DHT22;53959;53.626;11.410;2022-12-17T09:59:30;-4.20;99.90
5138;DHT22;53959;53.626;11.410;2022-12-17T10:02:21;-4.10;99.90
5138;DHT22;53959;53.626;11.410;2022-12-17T10:05:08;-4.20;99.90
5138;DHT22;53959;53.626;11.410;2022-12-17T10:07:57;-4.10;99.90
5138;DHT22;53959;53.626;11.410;2022-12-17T10:10:44;-4.10;99.90
5138;DHT22;53959;53.626;11.410;2022-12-17T10:13:29;-4.00;99.90
5138;DHT22;53959;53.626;11.410;2022-12-17T10:16:31;-4.00;99.90
5138;DHT22;53959;53.626;11.410;2022-12-17T10:19:27;-3.90;99.90
5138;DHT22;53959;53.626;11.410;2022-12-17T10:22:14;-3.80;99.90
5138;DHT22;53959;53.626;11.410;2022-12-17T10:25:15;-3.70;99.90
5138;DHT22;53959;53.626;11.410;2022-12-17T10:28:05;-3.80;99.90
5138;DHT22;53959;53.626;11.410;2022-12-17T10:30:50;-3.60;99.90
5138;DHT22;53959;53.626;11.410;2022-12-17T10:33:38;-3.60;99.90
5138;DHT22;53959;53.626;11.410;2022-12-17T10:36:24;-3.50;99.90
5138;DHT22;53959;53.626;11.410;2022-12-17T10:39:17;-3.50;99.90
5138;DHT22;53959;53.626;11.410;2022-12-17T10:42:16;-3.40;99.90
5138;DHT22;53959;53.626;11.410;2022-12-17T10:45:17;-3.40;99.90
5138;DHT22;53959;53.626;11.410;2022-12-17T10:48:02;-3.40;99.90
5138;DHT22;53959;53.626;11.410;2022-12-17T10:50:46;-3.50;99.90
5138;DHT22;53959;53.626;11.410;2022-12-17T10:53:30;-3.40;99.90
5138;DHT22;53959;53.626;11.410;2022-12-17T10:56:25;-3.20;99.90
5138;DHT22;53959;53.626;11.410;2022-12-17T10:59:21;-3.20;99.90
5138;DHT22;53959;53.626;11.410;2022-12-17T11:02:16;-3.10;99.90
5138;DHT22;53959;53.626;11.410;2022-12-17T11:05:04;-3.10;99.90
5138;DHT22;53959;53.626;11.410;2022-12-17T11:08:03;-3.10;99.90
5138;DHT22;53959;53.626;11.410;2022-12-17T11:10:47;-3.10;99.90
5138;DHT22;53959;53.626;11.410;2022-12-17T11:13:55;-3.10;99.90
5138;DHT22;53959;53.626;11.410;2022-12-17T11:16:46;-3.00;99.90
5138;DHT22;53959;53.626;11.410;2022-12-17T11:19:45;-2.90;99.90
5138;DHT22;53959;53.626;11.410;2022-12-17T11:22:38;-2.90;99.90
5138;DHT22;53959;53.626;11.410;2022-12-17T11:28:34;-2.90;99.90
5138;DHT22;53959;53.626;11.410;2022-12-17T11:37:17;-2.80;99.90
5138;DHT22;53959;53.626;11.410;2022-12-17T11:40:20;-2.60;99.90
5138;DHT22;53959;53.626;11.410;2022-12-17T11:43:11;-2.60;99.90
5138;DHT22;53959;53.626;11.410;2022-12-17T11:58:52;-2.30;99.90
5138;DHT22;53959;53.626;11.410;2022-12-17T12:01:46;-2.20;99.90
5138;DHT22;53959;53.626;11.410;2022-12-17T12:04:58;-2.20;99.90
5138;DHT22;53959;53.626;11.410;2022-12-17T12:10:56;-1.90;99.90
5138;DHT22;53959;53.626;11.410;2022-12-17T12:20:42;-1.90;99.90
5138;DHT22;53959;53.626;11.410;2022-12-17T12:26:46;-1.80;99.90
5138;DHT22;53959;53.626;11.410;2022-12-17T12:29:48;-1.70;99.90
5138;DHT22;53959;53.626;11.410;2022-12-17T12:32:56;-1.70;99.90
5138;DHT22;53959;53.626;11.410;2022-12-17T12:35:42;-1.80;99.90
5138;DHT22;53959;53.626;11.410;2022-12-17T12:38:31;-1.60;99.90
5138;DHT22;53959;53.626;11.410;2022-12-17T12:41:37;-1.60;99.90
5138;DHT22;53959;53.626;11.410;2022-12-17T12:44:43;-1.60;99.90
5138;DHT22;53959;53.626;11.410;2022-12-17T12:47:48;-1.50;99.90
5138;DHT22;53959;53.626;11.410;2022-12-17T12:53:19;-1.40;99.90
5138;DHT22;53959;53.626;11.410;2022-12-17T12:56:04;-1.50;99.90
5138;DHT22;53959;53.626;11.410;2022-12-17T12:58:48;-1.40;99.90
5138;DHT22;53959;53.626;11.410;2022-12-17T13:01:35;-1.20;99.90
5138;DHT22;53959;53.626;11.410;2022-12-17T13:04:35;-1.30;99.90
5138;DHT22;53959;53.626;11.410;2022-12-17T13:07:26;-1.20;99.90
5138;DHT22;53959;53.626;11.410;2022-12-17T13:09:54;-1.10;99.90
5138;DHT22;53959;53.626;11.410;2022-12-17T13:17:56;-1.10;99.90
5138;DHT22;53959;53.626;11.410;2022-12-17T13:20:31;-1.00;99.90
5138;DHT22;53959;53.626;11.410;2022-12-17T13:23:24;-0.90;99.90
5138;DHT22;53959;53.626;11.410;2022-12-17T13:28:37;-0.60;99.90
5138;DHT22;53959;53.626;11.410;2022-12-17T13:31:05;-0.60;99.90
5138;DHT22;53959;53.626;11.410;2022-12-17T13:34:14;-0.50;99.90
5138;DHT22;53959;53.626;11.410;2022-12-17T13:37:00;0.20;99.90
5138;DHT22;53959;53.626;11.410;2022-12-17T13:39:46;2.20;99.90
5138;DHT22;53959;53.626;11.410;2022-12-17T13:42:29;2.40;99.90
5138;DHT22;53959;53.626;11.410;2022-12-17T13:44:56;2.70;99.90
5138;DHT22;53959;53.626;11.410;2022-12-17T13:47:28;2.20;99.90
5138;DHT22;53959;53.626;11.410;2022-12-17T13:49:57;2.70;99.90
5138;DHT22;53959;53.626;11.410;2022-12-17T13:52:28;2.60;99.90
5138;DHT22;53959;53.626;11.410;2022-12-17T13:55:06;2.80;99.90
5138;DHT22;53959;53.626;11.410;2022-12-17T13:57:32;2.10;99.90
5138;DHT22;53959;53.626;11.410;2022-12-17T13:59:59;1.20;99.90
5138;DHT22;53959;53.626;11.410;2022-12-17T14:02:34;0.50;99.90
5138;DHT22;53959;53.626;11.410;2022-12-17T14:05:05;0.20;99.90
5138;DHT22;53959;53.626;11.410;2022-12-17T14:07:33;0.00;99.90
5138;DHT22;53959;53.626;11.410;2022-12-17T14:09:59;-0.30;99.90
5138;DHT22;53959;53.626;11.410;2022-12-17T14:12:26;-0.50;99.90
5138;DHT22;53959;53.626;11.410;2022-12-17T14:15:03;-0.80;99.90
5138;DHT22;53959;53.626;11.410;2022-12-17T14:20:04;-1.10;99.90
5138;DHT22;53959;53.626;11.410;2022-12-17T14:22:36;-1.20;99.90
5138;DHT22;53959;53.626;11.410;2022-12-17T14:25:08;-1.30;99.90
5138;DHT22;53959;53.626;11.410;2022-12-17T14:27:37;-1.30;99.90
5138;DHT22;53959;53.626;11.410;2022-12-17T14:30:21;-1.40;99.90
5138;DHT22;53959;53.626;11.410;2022-12-17T14:32:47;-1.50;99.90
5138;DHT22;53959;53.626;11.410;2022-12-17T14:35:42;-1.60;99.90
5138;DHT22;53959;53.626;11.410;2022-12-17T14:38:17;-1.70;99.90
5138;DHT22;53959;53.626;11.410;2022-12-17T14:40:43;-1.70;99.90
5138;DHT22;53959;53.626;11.410;2022-12-17T14:43:12;-1.70;99.90
5138;DHT22;53959;53.626;11.410;2022-12-17T14:45:38;-1.70;99.90
5138;DHT22;53959;53.626;11.410;2022-12-17T14:48:25;-1.70;99.90
5138;DHT22;53959;53.626;11.410;2022-12-17T14:51:26;-1.80;99.90
5138;DHT22;53959;53.626;11.410;2022-12-17T14:53:52;-2.00;99.90
5138;DHT22;53959;53.626;11.410;2022-12-17T14:56:21;-2.00;99.90
5138;DHT22;53959;53.626;11.410;2022-12-17T14:58:47;-2.00;99.90
5138;DHT22;53959;53.626;11.410;2022-12-17T15:01:12;-2.20;99.90
5138;DHT22;53959;53.626;11.410;2022-12-17T15:03:43;-2.10;99.90
5138;DHT22;53959;53.626;11.410;2022-12-17T15:06:14;-2.10;99.90
5138;DHT22;53959;53.626;11.410;2022-12-17T15:08:43;-2.20;99.90
5138;DHT22;53959;53.626;11.410;2022-12-17T15:11:12;-2.30;99.90
5138;DHT22;53959;53.626;11.410;2022-12-17T15:13:37;-2.40;99.90
5138;DHT22;53959;53.626;11.410;2022-12-17T15:16:03;-2.40;99.90
5138;DHT22;53959;53.626;11.410;2022-12-17T15:18:29;-2.40;99.90
5138;DHT22;53959;53.626;11.410;2022-12-17T15:20:54;-2.40;99.90
5138;DHT22;53959;53.626;11.410;2022-12-17T15:23:22;-2.60;99.90
5138;DHT22;53959;53.626;11.410;2022-12-17T15:25:49;-2.70;99.90
5138;DHT22;53959;53.626;11.410;2022-12-17T15:28:16;-2.80;99.90
5138;DHT22;53959;53.626;11.410;2022-12-17T15:30:42;-2.70;99.90
5138;DHT22;53959;53.626;11.410;2022-12-17T15:33:09;-2.80;99.90
5138;DHT22;53959;53.626;11.410;2022-12-17T15:35:36;-2.90;99.90
5138;DHT22;53959;53.626;11.410;2022-12-17T15:38:02;-2.90;99.90
5138;DHT22;53959;53.626;11.410;2022-12-17T15:40:27;-2.90;99.90
5138;DHT22;53959;53.626;11.410;2022-12-17T15:42:53;-2.70;99.90
5138;DHT22;53959;53.626;11.410;2022-12-17T15:45:42;-2.40;99.90
5138;DHT22;53959;53.626;11.410;2022-12-17T15:48:08;-2.80;99.90
5138;DHT22;53959;53.626;11.410;2022-12-17T15:50:34;-3.10;99.90
5138;DHT22;53959;53.626;11.410;2022-12-17T15:53:00;-3.20;99.90
5138;DHT22;53959;53.626;11.410;2022-12-17T15:55:25;-3.20;99.90
5138;DHT22;53959;53.626;11.410;2022-12-17T15:57:51;-3.20;99.90
5138;DHT22;53959;53.626;11.410;2022-12-17T16:00:17;-3.30;99.90
5138;DHT22;53959;53.626;11.410;2022-12-17T16:02:42;-3.30;99.90
5138;DHT22;53959;53.626;11.410;2022-12-17T16:05:08;-3.30;99.90
5138;DHT22;53959;53.626;11.410;2022-12-17T16:07:33;-3.40;99.90
5138;DHT22;53959;53.626;11.410;2022-12-17T16:09:59;-3.40;99.90
5138;DHT22;53959;53.626;11.410;2022-12-17T16:12:25;-3.40;99.90
5138;DHT22;53959;53.626;11.410;2022-12-17T16:14:50;-3.30;99.90
5138;DHT22;53959;53.626;11.410;2022-12-17T16:17:16;-3.40;99.90
5138;DHT22;53959;53.626;11.410;2022-12-17T16:19:41;-3.30;99.90
5138;DHT22;53959;53.626;11.410;2022-12-17T16:22:07;-3.30;99.90
5138;DHT22;53959;53.626;11.410;2022-12-17T16:24:32;-3.40;99.90
5138;DHT22;53959;53.626;11.410;2022-12-17T16:26:58;-3.50;99.90
5138;DHT22;53959;53.626;11.410;2022-12-17T16:29:23;-3.50;99.90
5138;DHT22;53959;53.626;11.410;2022-12-17T16:31:49;-3.40;99.90
5138;DHT22;53959;53.626;11.410;2022-12-17T16:34:15;-3.50;99.90
5138;DHT22;53959;53.626;11.410;2022-12-17T16:36:41;-3.60;99.90
5138;DHT22;53959;53.626;11.410;2022-12-17T16:39:07;-3.60;99.90
5138;DHT22;53959;53.626;11.410;2022-12-17T16:41:33;-3.70;99.90
5138;DHT22;53959;53.626;11.410;2022-12-17T16:43:58;-3.70;99.90
5138;DHT22;53959;53.626;11.410;2022-12-17T16:46:29;-3.60;99.90
5138;DHT22;53959;53.626;11.410;2022-12-17T16:48:56;-3.60;99.90
5138;DHT22;53959;53.626;11.410;2022-12-17T16:51:22;-3.60;99.90
5138;DHT22;53959;53.626;11.410;2022-12-17T16:53:49;-3.70;99.90
5138;DHT22;53959;53.626;11.410;2022-12-17T16:56:16;-3.70;99.90
5138;DHT22;53959;53.626;11.410;2022-12-17T16:58:41;-3.80;99.90
5138;DHT22;53959;53.626;11.410;2022-12-17T17:01:07;-3.80;99.90
5138;DHT22;53959;53.626;11.410;2022-12-17T17:03:32;-3.70;99.90
5138;DHT22;53959;53.626;11.410;2022-12-17T17:06:01;-3.70;99.90
5138;DHT22;53959;53.626;11.410;2022-12-17T17:08:28;-3.70;99.90
5138;DHT22;53959;53.626;11.410;2022-12-17T17:10:54;-3.90;99.90
5138;DHT22;53959;53.626;11.410;2022-12-17T17:13:19;-3.90;99.90
5138;DHT22;53959;53.626;11.410;2022-12-17T17:15:45;-3.80;99.90
5138;DHT22;53959;53.626;11.410;2022-12-17T17:18:10;-3.70;99.90
5138;DHT22;53959;53.626;11.410;2022-12-17T17:20:36;-3.70;99.90
5138;DHT22;53959;53.626;11.410;2022-12-17T17:23:01;-3.80;99.90
5138;DHT22;53959;53.626;11.410;2022-12-17T17:25:27;-3.80;99.90
5138;DHT22;53959;53.626;11.410;2022-12-17T17:27:53;-3.80;99.90
5138;DHT22;53959;53.626;11.410;2022-12-17T17:30:18;-3.70;99.90
5138;DHT22;53959;53.626;11.410;2022-12-17T17:32:44;-3.80;99.90
5138;DHT22;53959;53.626;11.410;2022-12-17T17:35:09;-3.80;99.90
5138;DHT22;53959;53.626;11.410;2022-12-17T17:37:35;-3.90;99.90
5138;DHT22;53959;53.626;11.410;2022-12-17T17:40:01;-3.80;99.90
5138;DHT22;53959;53.626;11.410;2022-12-17T17:42:26;-3.80;99.90
5138;DHT22;53959;53.626;11.410;2022-12-17T17:44:52;-3.90;99.90
5138;DHT22;53959;53.626;11.410;2022-12-17T17:47:17;-3.90;99.90
5138;DHT22;53959;53.626;11.410;2022-12-17T17:49:43;-4.00;99.90
5138;DHT22;53959;53.626;11.410;2022-12-17T17:52:08;-4.10;99.90
5138;DHT22;53959;53.626;11.410;2022-12-17T17:54:34;-4.10;99.90
5138;DHT22;53959;53.626;11.410;2022-12-17T17:56:59;-4.20;99.90
5138;DHT22;53959;53.626;11.410;2022-12-17T17:59:25;-4.00;99.90
5138;DHT22;53959;53.626;11.410;2022-12-17T18:01:51;-4.00;99.90
5138;DHT22;53959;53.626;11.410;2022-12-17T18:04:20;-4.20;99.90
5138;DHT22;53959;53.626;11.410;2022-12-17T18:06:47;-4.20;99.90
5138;DHT22;53959;53.626;11.410;2022-12-17T18:09:13;-4.20;99.90
5138;DHT22;53959;53.626;11.410;2022-12-17T18:11:40;-4.30;99.90
5138;DHT22;53959;53.626;11.410;2022-12-17T18:14:07;-4.30;99.90